KLSE/LSE METAR and TAF weather

Enter ICAO airport designator
Station Type Date Time Source
KLSE METAR 2019/06/26 19:53 UTC NOAA

KLSE 261953Z 25003KT 10SM FEW120 29/10 A3003 RMK AO2 SLP158 T02940100


Station Type Date Time Source
KLSE Decoded METAR 2019/06/26 19:53 UTC NOAA

LA CROSSE MUNICIPAL AIRPORT , WI, United States (KLSE) 43-53N 091-15W 200M
Jun 26, 2019 - 03:53 PM EDT / 2019.06.26 1953 UTC
Wind: from the WSW (250 degrees) at 3 MPH (3 KT):0
Visibility: 10 mile(s):0
Sky conditions: mostly clear
Temperature: 84.9 F (29.4 C)
Dew Point: 50.0 F (10.0 C)
Relative Humidity: 29%
Pressure (altimeter): 30.03 in. Hg (1016 hPa)
ob: KLSE 261953Z 25003KT 10SM FEW120 29/10 A3003 RMK AO2 SLP158 T02940100
cycle: 20

Station Type Date Time Source
KLSE TAF 2019/06/26 18:22 UTC NOAA

TAF KLSE 261720Z 2618/2718 15005KT P6SM FEW050 SCT100
FM271500 17006KT P6SM BKN060

Example: see airport list